Saint-Malo, Canada
Current Conditions -  °F | °C
As of 1:00 AM on Thursday 23 Oct 2014 (Local Time) from CYSC Reporting Station
Overcast Overcast  
Wind Chill: 39°   Ceiling: 2800
Heat Index: 45°   Visibility: NA
Dew Point: 36°   Wind: 12mph
Humidity: 71%   Direction: 40°NE
Pressure: 30.12"   Gusts: 20mph
Location:  45.2°N, 71.5°W
Report Text: CYSC 230500Z AUTO 04010G17KT 010V080 OVC028 07/02 A3012 RMK WX MISG VIS MISG PCPN MISG SLP204
Loading
Personal Weather Stations






























Interactive Weather Map
Tropical Storm Tracking
New forecast layout! Learn more

10-Day Weather Forecast

Advertisements
Track Severe Weather on mobile